• Join FlightAware (Why Join?)
  • Login
  • US Flag 
05:30PM EDT


 

Airport Tracker/Info


-or-


 

Live Flight TrackerFlight Track Log ✈ UAL33 ✈ 25-Apr-2013 ✈ KLAX - KJFK

Flight Track Log - Related Links

Times and Time Zones

All times are in EDT time to prevent confusion due to time zone crossing. See the UAL33 flight status page for this flight to view local times or setup timezone preferences in your user account.

Time Position Orientation Groundspeed Altitude Reporting Facility
EDT Latitude Longitude Course Direction KTS MPH feet Rate Location/Type
03:12PM 33.9340 -118.4370 264° West 181 208 1,700  Level FlightAware
03:12PM 33.9280 -118.4740 259° West 223 257 2,700 2,460 Climbing FlightAware
03:13PM 33.9190 -118.5000 247° West 223 257 4,000 3,000 Climbing FlightAware
03:13PM 33.9020 -118.5340 239° Southwest 236 272 5,500 2,760 Climbing FlightAware
03:13PM 33.8860 -118.5410 200° South 253 291 6,100 2,580 Climbing FlightAware
03:14PM 33.8690 -118.5390 174° South 253 291 6,800 2,880 Climbing FlightAware
03:14PM 33.8580 -118.5310 149° Southeast 255 293 7,300 3,120 Climbing FlightAware
03:14PM 33.8490 -118.5110 118° Southeast 251 289 8,100 2,760 Climbing FlightAware
03:14PM 33.8610 -118.4760 68° East 251 289 9,400 2,820 Climbing FlightAware
03:15PM 33.9020 -118.4460 31° Northeast 255 293 11,400 2,820 Climbing FlightAware
03:16PM 33.9410 -118.4140 34° Northeast 265 305 13,200 2,400 Climbing FlightAware
03:17PM 33.9730 -118.3570 56° Northeast 297 342 14,800 1,320 Climbing FlightAware
03:17PM 34.0080 -118.2950 56° Northeast 358 412 15,100 960 Climbing FlightAware
03:18PM 34.0520 -118.2170 56° Northeast 393 452 16,200 1,800 Climbing FlightAware
03:19PM 34.0950 -118.1420 55° Northeast 410 472 17,700 2,280 Climbing FlightAware
03:19PM 34.1380 -118.0650 56° Northeast 417 480 19,300 2,040 Climbing FlightAware
03:20PM 34.1870 -117.9780 56° Northeast 435 501 20,600 1,860 Climbing FlightAware
03:21PM 34.2320 -117.8980 56° Northeast 446 513 22,000 1,860 Climbing FlightAware
03:21PM 34.2870 -117.8010 56° Northeast 459 528 23,300 1,680 Climbing FlightAware
03:22PM 34.3340 -117.7160 56° Northeast 471 542 24,400 1,620 Climbing FlightAware
03:23PM 34.3930 -117.6200 53° Northeast 480 552 25,600 1,620 Climbing FlightAware
03:24PM 34.4500 -117.5360 51° Northeast 487 560 26,700 1,560 Climbing FlightAware
03:24PM 34.5090 -117.4530 49° Northeast 496 571 27,700 1,380 Climbing FlightAware
03:25PM 34.5790 -117.3550 49° Northeast 504 580 28,700 1,500 Climbing FlightAware
03:26PM 34.6400 -117.2690 49° Northeast 503 579 29,900 1,800 Climbing FlightAware
03:26PM 34.7060 -117.1760 49° Northeast 499 574 31,300 1,200 Climbing FlightAware
03:27PM 34.7550 -117.1060 50° Northeast 499 574 31,500 1,380 Climbing FlightAware
03:28PM 34.8250 -117.0060 50° Northeast 502 578 33,200 1,860 Climbing FlightAware
03:28PM 34.8850 -116.9200 50° Northeast 501 577 34,200 1,500 Climbing FlightAware
03:29PM 34.9540 -116.8220 49° Northeast 494 568 35,400 1,380 Climbing FlightAware
03:30PM 35.0190 -116.7280 50° Northeast 496 571 36,300 1,080 Climbing FlightAware
03:31PM 35.0780 -116.6420 50° Northeast 494 568 37,000 480 Climbing FlightAware
03:31PM 35.1450 -116.5460 50° Northeast 492 566 37,000  Level FlightAware
03:32PM 35.2040 -116.4600 50° Northeast 487 560 37,000  Level FlightAware
03:33PM 35.2610 -116.3760 50° Northeast 485 558 37,000  Level FlightAware
03:33PM 35.3220 -116.2870 50° Northeast 484 557 37,000  Level FlightAware
03:34PM 35.3770 -116.2060 50° Northeast 484 557 37,000  Level FlightAware
03:35PM 35.4490 -116.1020 50° Northeast 482 555 37,000  Level FlightAware
03:35PM 35.5050 -116.0180 51° Northeast 482 555 37,000  Level FlightAware
03:36PM 35.5610 -115.9360 50° Northeast 483 556 37,000  Level FlightAware
03:37PM 35.6230 -115.8400 52° Northeast 487 560 37,000  Level FlightAware
03:38PM 35.6580 -115.7360 67° East 494 568 37,000  Level FlightAware
03:38PM 35.6720 -115.6260 81° East 496 571 37,000  Level FlightAware
03:39PM 35.6870 -115.4960 82° East 497 572 37,000  Level FlightAware
03:40PM 35.7000 -115.3840 82° East 500 575 37,000  Level FlightAware
03:40PM 35.7130 -115.2610 83° East 501 577 37,000  Level FlightAware
03:41PM 35.7260 -115.1470 82° East 503 579 37,000  Level FlightAware
03:42PM 35.7400 -115.0210 82° East 504 580 37,000  Level FlightAware
03:42PM 35.7540 -114.9070 81° East 505 581 37,000  Level FlightAware
03:43PM 35.7690 -114.7900 81° East 505 581 37,000  Level FlightAware
03:44PM 35.7840 -114.6630 82° East 505 581 37,000  Level FlightAware
03:45PM 35.7970 -114.5490 82° East 505 581 37,000  Level FlightAware
03:45PM 35.8110 -114.4360 81° East 506 582 37,000  Level FlightAware
03:46PM 35.8260 -114.3050 82° East 506 582 37,000  Level FlightAware
03:47PM 35.8390 -114.1920 82° East 506 582 37,000  Level FlightAware
03:47PM 35.8530 -114.0710 82° East 508 585 37,000  Level FlightAware
03:48PM 35.8660 -113.9510 82° East 508 585 37,000  Level FlightAware
03:49PM 35.8810 -113.8180 82° East 508 585 37,000  Level FlightAware
03:49PM 35.8940 -113.7030 82° East 508 585 37,000  Level FlightAware
03:50PM 35.9060 -113.5900 82° East 508 585 37,000  Level FlightAware
03:51PM 35.9180 -113.4800 82° East 507 583 37,000  Level FlightAware
03:52PM 35.9320 -113.3500 82° East 504 580 37,000  Level FlightAware
03:52PM 35.9460 -113.2190 82° East 503 579 37,000  Level FlightAware
03:53PM 35.9570 -113.1060 83° East 502 578 37,000  Level FlightAware
03:54PM 35.9690 -112.9920 83° East 499 574 37,000  Level FlightAware
03:54PM 35.9820 -112.8660 83° East 498 573 37,000  Level FlightAware
03:55PM 35.9930 -112.7520 83° East 498 573 37,000  Level FlightAware
03:56PM 36.0060 -112.6280 83° East 497 572 37,000  Level FlightAware
03:56PM 36.0170 -112.5160 83° East 497 572 37,000  Level FlightAware
03:57PM 36.0240 -112.4390 84° East 497 572 37,000  Level FlightAware
03:58PM 36.0320 -112.3620 83° East 497 572 37,000  Level FlightAware
03:59PM 36.0440 -112.2420 83° East 497 572 37,000  Level FlightAware
03:59PM 36.0530 -112.1460 83° East 497 572 37,000  Level FlightAware
04:00PM 36.0710 -111.9470 84° East 501 577 37,000  Level FlightAware
04:01PM 36.0810 -111.8510 83° East 501 577 37,000  Level FlightAware
04:01PM 36.0900 -111.7540 83° East 501 577 37,000  Level FlightAware
04:02PM 36.1020 -111.6330 83° East 501 577 37,000  Level FlightAware
04:03PM 36.1120 -111.5360 83° East 501 577 37,000  Level FlightAware
04:04PM 36.1220 -111.4390 83° East 501 577 37,000  Level FlightAware
04:04PM 36.1310 -111.3420 83° East 501 577 37,000  Level FlightAware
04:05PM 36.1410 -111.2460 83° East 501 577 37,000  Level FlightAware
04:06PM 36.1500 -111.1490 83° East 501 577 37,000  Level FlightAware
04:06PM 36.1620 -111.0280 83° East 501 577 37,000  Level FlightAware
04:07PM 36.1720 -110.9310 83° East 501 577 37,000  Level FlightAware
04:08PM 36.1810 -110.8340 83° East 501 577 37,000  Level FlightAware
04:08PM 36.1910 -110.7370 83° East 501 577 37,000  Level FlightAware
04:09PM 36.2030 -110.6160 83° East 501 577 37,000  Level FlightAware
04:10PM 36.3547 -110.1481 83° East 527 606 37,000  Level Denver Center
04:11PM 36.3894 -109.9700 76° East 526 605 37,000  Level Denver Center
04:12PM 36.4283 -109.7739 76° East 524 603 37,000  Level Denver Center
04:13PM 36.4617 -109.6050 76° East 523 602 37,000  Level Denver Center
04:14PM 36.5006 -109.4075 76° East 525 604 37,000  Level Denver Center
04:16PM 36.5339 -109.2378 76° East 526 605 37,000  Level Denver Center
04:17PM 36.5667 -109.0678 76° East 525 604 37,000  Level Denver Center
04:18PM 36.6047 -108.8681 77° East 528 608 37,000  Level Denver Center
04:19PM 36.6369 -108.6964 77° East 529 609 37,000  Level Denver Center
04:20PM 36.6747 -108.4994 76° East 524 603 37,000  Level Denver Center
04:21PM 36.7056 -108.3292 77° East 524 603 37,000  Level Denver Center
04:22PM 36.7425 -108.1322 77° East 521 600 37,000  Level Denver Center
04:23PM 36.7842 -107.9650 73° East 524 603 37,000  Level Denver Center
04:24PM 36.8381 -107.7700 71° East 529 609 37,000  Level Denver Center
04:25PM 36.8831 -107.6031 71° East 532 612 37,000  Level Denver Center
04:26PM 36.9289 -107.4350 71° East 532 612 37,000  Level Denver Center
04:27PM 36.9811 -107.2386 72° East 532 612 37,000  Level Denver Center
04:28PM 37.0258 -107.0706 72° East 532 612 37,000  Level Denver Center
04:29PM 37.0775 -106.8706 72° East 540 621 37,000  Level Denver Center
04:30PM 37.1217 -106.7028 72° East 533 613 37,000  Level Denver Center
04:31PM 37.1736 -106.5042 72° East 535 616 37,000  Level Denver Center
04:36PM 37.4199 -105.5630 72° East 531 611 37,000  Level FlightAware ADS-B
04:37PM 37.4476 -105.4680 70° East 536 617 37,000  Level FlightAware ADS-B
04:37PM 37.4752 -105.3700 70° East 536 617 37,000  Level FlightAware ADS-B
04:38PM 37.5001 -105.2820 70° East 535 616 37,000  Level FlightAware ADS-B
04:38PM 37.5252 -105.1930 70° East 534 615 37,000  Level FlightAware ADS-B
04:39PM 37.5503 -105.1030 71° East 533 613 37,000  Level FlightAware ADS-B
04:39PM 37.5748 -105.0150 71° East 528 608 37,000  Level FlightAware ADS-B
04:40PM 37.6053 -104.9050 71° East 527 606 37,000  Level FlightAware ADS-B
04:41PM 37.6297 -104.8160 71° East 525 604 37,000  Level FlightAware ADS-B
04:41PM 37.6558 -104.7220 71° East 529 609 37,000  Level FlightAware ADS-B
04:42PM 37.6946 -104.5820 71° East 532 612 37,000  Level FlightAware ADS-B
04:42PM 37.7190 -104.4930 71° East 531 611 37,000  Level FlightAware ADS-B
04:43PM 37.7530 -104.3670 71° East 532 612 37,000  Level FlightAware
04:44PM 37.7758 -104.2850 71° East 535 616 37,000  Level FlightAware ADS-B
04:44PM 37.8000 -104.1950 71° East 539 620 37,000  Level FlightAware ADS-B
04:45PM 37.8244 -104.1050 71° East 540 621 37,000  Level FlightAware ADS-B
04:45PM 37.8501 -104.0100 71° East 541 623 37,000  Level FlightAware ADS-B
04:46PM 37.8745 -103.9190 71° East 543 625 37,000  Level FlightAware ADS-B
04:46PM 37.8994 -103.8270 71° East 544 626 37,000  Level FlightAware ADS-B
04:47PM 37.9243 -103.7330 71° East 544 626 37,000  Level FlightAware ADS-B
04:47PM 37.9483 -103.6430 71° East 544 626 37,000  Level FlightAware ADS-B
04:48PM 37.9725 -103.5520 71° East 546 628 37,000  Level FlightAware ADS-B
04:48PM 37.9965 -103.4610 71° East 546 628 37,000  Level FlightAware ADS-B
04:49PM 38.0209 -103.3680 72° East 547 629 37,000  Level FlightAware ADS-B
04:49PM 38.0450 -103.2770 71° East 548 631 37,000  Level FlightAware ADS-B
04:50PM 38.0690 -103.1850 72° East 549 632 37,000  Level FlightAware ADS-B
04:50PM 38.0935 -103.0910 72° East 551 634 37,000  Level FlightAware ADS-B
04:51PM 38.1176 -102.9980 72° East 550 633 37,000  Level FlightAware ADS-B
04:51PM 38.1418 -102.9050 72° East 549 632 37,000  Level FlightAware ADS-B
04:52PM 38.1655 -102.8130 72° East 551 634 37,000  Level FlightAware ADS-B
04:52PM 38.1888 -102.7200 72° East 552 635 37,000  Level FlightAware ADS-B
04:53PM 38.2089 -102.6240 75° East 552 635 37,000  Level FlightAware ADS-B
04:53PM 38.2292 -102.5090 77° East 550 633 37,000  Level FlightAware ADS-B
04:54PM 38.2451 -102.4130 78° East 552 635 37,000  Level FlightAware ADS-B
04:54PM 38.2611 -102.3170 78° East 552 635 37,000  Level FlightAware ADS-B
04:55PM 38.2767 -102.2210 78° East 552 635 37,000  Level FlightAware ADS-B
04:55PM 38.2923 -102.1250 78° East 551 634 37,000 780 Level FlightAware ADS-B
04:56PM 38.3104 -102.0150 78° East 544 626 37,900 1,440 Climbing FlightAware ADS-B
04:56PM 38.3256 -101.9210 78° East 539 620 38,600 1,080 Climbing FlightAware ADS-B
04:57PM 38.3407 -101.8270 78° East 540 621 39,000 360 Climbing FlightAware ADS-B
04:57PM 38.3558 -101.7320 79° East 543 625 39,000  Level FlightAware ADS-B
04:58PM 38.3709 -101.6380 78° East 542 624 39,000  Level FlightAware ADS-B
04:58PM 38.3862 -101.5420 78° East 544 626 39,000  Level FlightAware ADS-B
04:59PM 38.3878 -101.5111 78° East 539 620 39,000  Level Denver Center
05:01PM 38.4386 -101.1764 79° East 543 625 39,000  Level Kansas City Center
05:01PM 38.4478 -101.1181 79° East 543 625 39,000  Level Denver Center
05:02PM 38.4806 -100.9042 79° East 548 631 39,000  Level Denver Center
05:03PM 38.5081 -100.7200 79° East 550 633 39,000  Level Denver Center
05:04PM 38.5356 -100.5339 79° East 555 639 39,000  Level Denver Center
05:05PM 38.5669 -100.3200 79° East 551 634 39,000  Level Denver Center
05:06PM 38.5931 -100.1356 80° East 548 631 39,000  Level Denver Center
05:07PM 38.6289 -99.8900 79° East 549 632 39,000  Level Denver Center
05:08PM 38.6581 -99.6750 80° East 546 628 39,000  Level Denver Center
05:09PM 38.6839 -99.4919 80° East 547 629 39,000  Level Denver Center
05:10PM 38.7083 -99.3089 80° East 546 628 39,000  Level Denver Center
05:11PM 38.7200 -99.2142 81° East 547 629 39,000  Level Kansas City Center
05:12PM 38.7475 -99.0192 80° East 551 634 39,000  Level Kansas City Center
05:13PM 38.7728 -98.8261 80° East 550 633 39,000  Level Kansas City Center
05:14PM 38.8031 -98.5928 80° East 551 634 39,000  Level Kansas City Center
05:15PM 38.8278 -98.3992 81° East 550 633 39,000  Level Kansas City Center
05:16PM 38.8531 -98.2042 80° East 551 634 39,000  Level Kansas City Center
05:17PM 38.8772 -98.0103 81° East 548 631 39,000  Level Kansas City Center
05:18PM 38.9031 -97.8056 81° East 548 631 39,000  Level Kansas City Center
05:19PM 38.9289 -97.5939 81° East 546 628 39,000  Level Kansas City Center
05:20PM 38.9514 -97.4300 80° East 548 631 39,000  Level Kansas City Center
05:21PM 38.9828 -97.2033 80° East 527 606 39,000  Level Kansas City Center
05:27PM 39.1260 -96.1510 80° East 531 611 39,000  Level FlightAware
05:27PM 39.1410 -96.0270 81° East 531 611 39,000  Level FlightAware
05:28PM 39.1570 -95.9020 81° East 531 611 39,000  Level FlightAware
05:29PM 39.1660 -95.8260 81° East 530 610 39,000  Level FlightAware
05:30PM 39.1830 -95.6860 81° East 530 610 39,000  Level FlightAware
05:31PM 39.1980 -95.5530 82° East 530 610 39,000  Level FlightAware
05:31PM 39.2140 -95.4230 81° East 530 610 39,000  Level FlightAware
05:32PM 39.2280 -95.2960 82° East 528 608 39,000  Level FlightAware
05:33PM 39.2450 -95.1530 81° East 527 606 39,000  Level FlightAware
05:33PM 39.2580 -95.0370 82° East 526 605 39,000  Level FlightAware
05:34PM 39.2730 -94.9040 82° East 523 602 39,000  Level FlightAware
05:35PM 39.2870 -94.7800 82° East 523 602 39,000  Level FlightAware
05:35PM 39.2990 -94.6760 81° East 521 600 39,000  Level FlightAware
05:36PM 39.3330 -94.4180 80° East 518 596 39,000  Level FlightAware
05:37PM 39.3490 -94.2950 80° East 516 594 39,000  Level FlightAware
05:38PM 39.3660 -94.1590 81° East 515 593 39,000  Level FlightAware
05:38PM 39.3810 -94.0350 81° East 514 592 39,000  Level FlightAware
05:39PM 39.3960 -93.9150 81° East 514 592 39,000  Level FlightAware
05:40PM 39.4120 -93.7830 81° East 514 592 39,000  Level FlightAware
05:40PM 39.4270 -93.6610 81° East 515 593 39,000  Level FlightAware
05:41PM 39.4650 -93.5320 69° East 498 573 39,000  Level FlightAware
05:42PM 39.5260 -93.4460 47° Northeast 481 554 39,000  Level FlightAware
05:42PM 39.5960 -93.3580 44° Northeast 470 541 39,000  Level FlightAware
05:43PM 39.6590 -93.2790 44° Northeast 466 536 39,000  Level FlightAware
05:44PM 39.7200 -93.2020 44° Northeast 463 533 39,000  Level FlightAware
05:45PM 39.7910 -93.1120 44° Northeast 461 531 39,000  Level FlightAware
05:45PM 39.8470 -93.0320 48° Northeast 477 549 39,000  Level FlightAware
05:46PM 39.8820 -92.9110 69° East 516 594 39,000  Level FlightAware
05:47PM 39.8850 -92.7970 88° East 535 616 39,000  Level FlightAware
05:47PM 39.8850 -92.6310 90° East 539 620 39,000  Level FlightAware
05:48PM 39.8850 -92.4960 90° East 542 624 39,000  Level FlightAware
05:49PM 39.8850 -92.3360 90° East 540 621 39,000  Level FlightAware
05:50PM 39.8850 -92.2250 90° East 540 621 39,000  Level FlightAware
05:50PM 39.8840 -92.0940 91° East 531 611 39,000  Level FlightAware
05:51PM 39.8830 -91.9270 90° East 529 609 39,000  Level FlightAware
05:52PM 39.8820 -91.8020 91° East 527 606 39,000  Level FlightAware
05:52PM 39.8810 -91.6630 90° East 526 605 39,000  Level FlightAware
05:53PM 39.8800 -91.5330 91° East 527 606 39,000  Level FlightAware
05:54PM 39.8790 -91.4240 91° East 529 609 39,000  Level FlightAware
05:55PM 39.8780 -91.2750 90° East 529 609 39,000  Level FlightAware
05:55PM 39.8740 -91.1390 92° East 534 615 39,000  Level FlightAware
05:56PM 39.8720 -91.0160 91° East 536 617 39,000  Level FlightAware
05:57PM 39.8690 -90.8610 91° East 539 620 39,000  Level FlightAware
05:57PM 39.8670 -90.7340 91° East 541 623 39,000  Level FlightAware
05:58PM 39.8640 -90.5830 91° East 544 626 39,000  Level FlightAware
05:59PM 39.8610 -90.4540 92° East 546 628 39,000  Level FlightAware
05:59PM 39.8580 -90.3030 91° East 545 627 39,000  Level FlightAware
06:00PM 39.8550 -90.2100 92° East 545 627 39,000  Level FlightAware
06:01PM 39.8520 -90.0570 91° East 544 626 39,000  Level FlightAware
06:02PM 39.8480 -89.9000 92° East 542 624 39,000  Level FlightAware
06:02PM 39.8440 -89.7760 92° East 539 620 39,000  Level FlightAware
06:03PM 39.8410 -89.6200 91° East 535 616 39,000  Level FlightAware
06:04PM 39.8420 -89.4980 89° East 532 612 39,000  Level FlightAware
06:04PM 39.8440 -89.3740 89° East 530 610 39,000  Level FlightAware
06:05PM 39.8440 -89.2240 90° East 529 609 39,000  Level FlightAware
06:06PM 39.8450 -89.0990 89° East 529 609 39,000  Level FlightAware
06:06PM 39.8450 -88.9830 90° East 530 610 39,000  Level FlightAware
06:07PM 39.8450 -88.8250 90° East 530 610 39,000  Level FlightAware
06:08PM 39.8450 -88.7000 90° East 530 610 39,000  Level FlightAware
06:09PM 39.8440 -88.5570 90° East 531 611 39,000  Level FlightAware
06:09PM 39.8440 -88.3860 90° East 532 612 39,000  Level FlightAware
06:10PM 39.8430 -88.2490 91° East 532 612 39,000  Level FlightAware
06:11PM 39.8420 -88.1170 91° East 532 612 39,000  Level FlightAware
06:12PM 39.8410 -87.9850 91° East 532 612 39,000  Level FlightAware
06:12PM 39.8400 -87.8240 90° East 532 612 39,000  Level FlightAware
06:13PM 39.8390 -87.6650 90° East 531 611 39,000  Level FlightAware
06:14PM 39.8370 -87.5230 91° East 532 612 39,000  Level FlightAware
06:15PM 39.8350 -87.3590 91° East 531 611 39,000  Level FlightAware
06:16PM 39.8330 -87.1710 91° East 531 611 39,000  Level FlightAware
06:16PM 39.8310 -87.0400 91° East 531 611 39,000  Level FlightAware
06:17PM 39.8290 -86.9160 91° East 531 611 39,000  Level FlightAware
06:18PM 39.8270 -86.7840 91° East 531 611 39,000  Level FlightAware
06:19PM 39.8240 -86.6520 92° East 531 611 39,000  Level FlightAware
06:19PM 39.8210 -86.4990 91° East 530 610 39,000  Level FlightAware
06:20PM 39.8230 -86.3720 89° East 524 603 39,000  Level FlightAware
06:21PM 39.8370 -86.2710 80° East 517 595 39,000  Level FlightAware
06:21PM 39.8610 -86.1480 76° East 517 595 39,000  Level FlightAware
06:22PM 39.8950 -85.9980 73° East 523 602 39,000  Level FlightAware
06:23PM 39.9250 -85.8560 75° East 527 606 39,000  Level FlightAware
06:23PM 39.9490 -85.7440 74° East 527 606 39,000  Level FlightAware
06:24PM 39.9810 -85.5920 75° East 528 608 39,000  Level FlightAware
06:25PM 40.0090 -85.4500 76° East 530 610 39,000  Level FlightAware
06:26PM 40.0380 -85.3100 75° East 531 611 39,000  Level FlightAware
06:27PM 40.0650 -85.1760 75° East 532 612 39,000  Level FlightAware
06:27PM 40.0910 -85.0500 75° East 532 612 39,000  Level FlightAware
06:29PM 40.1460 -84.7760 75° East 534 615 39,000  Level FlightAware
06:29PM 40.1710 -84.6500 75° East 532 612 39,000  Level FlightAware
06:30PM 40.1980 -84.5120 76° East 531 611 39,000  Level FlightAware
06:31PM 40.2220 -84.3890 76° East 531 611 39,000  Level FlightAware
06:31PM 40.2450 -84.2730 75° East 530 610 39,000  Level FlightAware
06:32PM 40.2730 -84.1270 76° East 530 610 39,000  Level FlightAware
06:33PM 40.3150 -83.9920 68° East 510 587 39,000  Level FlightAware
06:34PM 40.3700 -83.8930 54° Northeast 503 579 39,000  Level FlightAware
06:34PM 40.4270 -83.7950 53° Northeast 503 579 39,000  Level FlightAware
06:35PM 40.4890 -83.6880 53° Northeast 503 579 39,000  Level FlightAware
06:36PM 40.5450 -83.5920 52° Northeast 503 579 39,000  Level FlightAware
06:36PM 40.6090 -83.4800 53° Northeast 504 580 39,000  Level FlightAware
06:37PM 40.6630 -83.3870 53° Northeast 504 580 39,000  Level FlightAware
06:38PM 40.7190 -83.2890 53° Northeast 504 580 39,000  Level FlightAware
06:38PM 40.7720 -83.1970 53° Northeast 503 579 39,000  Level FlightAware
06:39PM 40.8480 -83.0630 53° Northeast 504 580 39,000  Level FlightAware
06:40PM 40.9280 -82.9240 53° Northeast 504 580 39,000  Level FlightAware
06:41PM 40.9900 -82.8150 53° Northeast 505 581 39,000  Level FlightAware
06:42PM 41.0450 -82.7140 54° Northeast 508 585 39,000  Level FlightAware
06:42PM 41.0970 -82.5840 62° Northeast 514 592 39,000  Level FlightAware
06:43PM 41.1440 -82.4530 64° Northeast 516 594 39,000  Level FlightAware
06:44PM 41.1720 -82.3730 65° Northeast 517 595 39,000  Level FlightAware
06:45PM 41.2280 -82.2070 66° East 517 595 39,000  Level FlightAware
06:45PM 41.2650 -82.0930 67° East 516 594 39,000  Level FlightAware
06:46PM 41.3030 -81.9770 66° East 517 595 39,000  Level FlightAware
06:47PM 41.3460 -81.8450 67° East 518 596 39,000  Level FlightAware
06:47PM 41.3850 -81.7260 66° East 517 595 39,000  Level FlightAware
06:48PM 41.4270 -81.5990 66° East 501 577 39,000  Level FlightAware
06:49PM 41.4680 -81.4890 64° Northeast 480 552 39,000  Level FlightAware
06:49PM 41.5100 -81.4220 50° Northeast 471 542 39,000  Level FlightAware
06:50PM 41.5680 -81.3350 48° Northeast 470 541 39,000  Level FlightAware
06:51PM 41.6260 -81.2510 47° Northeast 469 540 39,000  Level FlightAware
06:51PM 41.6920 -81.1560 47° Northeast 469 540 39,000  Level FlightAware
06:52PM 41.7490 -81.0750 47° Northeast 469 540 39,000  Level FlightAware
06:53PM 41.8200 -80.9750 46° Northeast 469 540 39,000  Level FlightAware
06:53PM 41.8790 -80.8920 46° Northeast 468 539 39,000  Level FlightAware
06:54PM 41.9380 -80.8090 46° Northeast 468 539 39,000  Level FlightAware
06:55PM 42.0080 -80.7120 46° Northeast 468 539 39,000  Level FlightAware
06:55PM 42.0620 -80.6370 46° Northeast 467 537 39,000  Level FlightAware
06:56PM 42.1230 -80.5520 46° Northeast 466 536 39,000  Level FlightAware
06:57PM 42.1780 -80.4530 53° Northeast 474 545 39,000  Level FlightAware
06:58PM 42.1960 -80.3320 79° East 476 548 39,000  Level FlightAware
06:58PM 42.1970 -80.2120 89° East 476 548 39,000  Level FlightAware
06:59PM 42.1980 -80.0820 89° East 476 548 39,000  Level FlightAware
07:00PM 42.1990 -79.9530 89° East 476 548 39,000  Level FlightAware
07:00PM 42.1990 -79.8600 90° East 477 549 39,000  Level FlightAware
07:01PM 42.2000 -79.7120 89° East 478 550 39,000  Level FlightAware
07:02PM 42.2000 -79.5650 90° East 479 551 39,000  Level FlightAware
07:02PM 42.2000 -79.4570 90° East 487 560 39,000  Level FlightAware
07:03PM 42.2000 -79.2940 90° East 499 574 39,000  Level FlightAware
07:04PM 42.1980 -79.1550 91° East 501 577 39,000  Level FlightAware
07:05PM 42.1760 -79.0290 103° East 499 574 39,000  Level FlightAware
07:05PM 42.1480 -78.9180 109° East 498 573 39,000  Level FlightAware
07:06PM 42.1130 -78.7770 108° East 495 570 39,000  Level FlightAware
07:07PM 42.0830 -78.6610 109° East 493 567 39,000  Level FlightAware
07:08PM 42.0490 -78.5290 109° East 492 566 39,000  Level FlightAware
07:08PM 42.0190 -78.4140 109° East 491 565 39,000  Level FlightAware
07:09PM 41.9900 -78.2990 109° East 490 564 39,000  Level FlightAware
07:10PM 41.9580 -78.1770 109° East 489 563 39,000  Level FlightAware
07:10PM 41.9260 -78.0550 109° East 488 562 39,000  Level FlightAware
07:11PM 41.8940 -77.9320 109° East 489 563 39,000  Level FlightAware
07:12PM 41.8640 -77.8190 110° East 488 562 39,000  Level FlightAware
07:12PM 41.8330 -77.7010 109° East 487 560 39,000  Level FlightAware
07:13PM 41.7990 -77.5770 110° East 486 559 39,000  Level FlightAware
07:14PM 41.7680 -77.4600 110° East 486 559 39,000  Level FlightAware
07:15PM 41.7380 -77.3470 110° East 486 559 39,000  Level FlightAware
07:15PM 41.7030 -77.2180 110° East 486 559 39,000 -720 Level FlightAware
07:16PM 41.6690 -77.0950 110° East 494 568 38,000 -1,440 Descending FlightAware
07:17PM 41.6400 -76.9910 110° East 500 575 37,100 -1,200 Descending FlightAware
07:17PM 41.6080 -76.8740 110° East 498 573 36,400 -960 Descending FlightAware
07:18PM 41.5690 -76.7330 110° East 495 570 35,700 -1,020 Descending FlightAware
07:18PM 41.5627 -76.7101 110° East 493 567 35,600 -900 Descending FlightAware ADS-B
07:19PM 41.5430 -76.6380 110° East 490 564 35,200 -900 Descending FlightAware
07:19PM 41.5295 -76.5912 111° Southeast 491 565 35,000 -300 Descending FlightAware ADS-B
07:19PM 41.5056 -76.5053 110° East 490 564 35,000  Level FlightAware ADS-B
07:20PM 41.4811 -76.4185 111° Southeast 495 570 35,000  Level FlightAware ADS-B
07:20PM 41.4550 -76.3256 111° Southeast 500 575 35,000 -660 Level FlightAware ADS-B
07:21PM 41.4286 -76.2319 111° Southeast 507 583 34,300 -1,620 Descending FlightAware ADS-B
07:22PM 41.4034 -76.1431 111° Southeast 502 578 33,300 -1,980 Descending FlightAware ADS-B
07:22PM 41.3774 -76.0518 111° Southeast 494 568 32,300 -2,280 Descending FlightAware ADS-B
07:23PM 41.3531 -75.9667 111° Southeast 486 559 31,000 -2,340 Descending FlightAware ADS-B
07:23PM 41.3310 -75.8910 111° Southeast 479 551 29,900 -2,460 Descending FlightAware
07:23PM 41.3276 -75.8784 110° East 474 545 29,700 -2,340 Descending FlightAware ADS-B
07:24PM 41.3041 -75.7962 111° Southeast 460 529 28,700 -1,980 Descending FlightAware ADS-B
07:24PM 41.2808 -75.7171 111° Southeast 456 525 27,700 -1,980 Descending FlightAware ADS-B
07:25PM 41.2525 -75.6299 113° Southeast 449 517 26,600 -1,920 Descending FlightAware ADS-B
07:25PM 41.2250 -75.5485 114° Southeast 441 507 25,600 -1,860 Descending FlightAware ADS-B
07:26PM 41.2005 -75.4763 114° Southeast 420 483 24,700 -2,040 Descending FlightAware ADS-B
07:26PM 41.1697 -75.3863 114° Southeast 398 458 23,300 -1,500 Descending FlightAware ADS-B
07:27PM 41.1433 -75.3094 114° Southeast 392 451 22,900 -720 Descending FlightAware ADS-B
07:28PM 41.1179 -75.2349 114° Southeast 389 448 22,500 -660 Descending FlightAware ADS-B
07:28PM 41.0945 -75.1671 115° Southeast 386 444 22,200 -720 Descending FlightAware ADS-B
07:29PM 41.0710 -75.0986 114° Southeast 382 440 21,800 -780 Descending FlightAware ADS-B
07:29PM 41.0489 -75.0342 114° Southeast 379 436 21,400 -720 Descending FlightAware ADS-B
07:30PM 41.0266 -74.9693 114° Southeast 374 430 21,100 -420 Descending FlightAware ADS-B
07:30PM 41.0072 -74.9130 115° Southeast 372 428 21,000 -180 Descending FlightAware ADS-B
07:30PM 41.0025 -74.8978 112° Southeast 374 430 21,000  Level FlightAware ADS-B
07:31PM 40.9914 -74.8442 105° East 379 436 21,000 -180 Level FlightAware ADS-B
07:31PM 40.9869 -74.8102 100° East 385 443 20,900 -540 Descending FlightAware ADS-B
07:31PM 40.9857 -74.7904 95° East 389 448 20,800 -600 Descending FlightAware ADS-B
07:31PM 40.9876 -74.7620 85° East 391 450 20,700 -600 Descending FlightAware ADS-B
07:31PM 40.9910 -74.7440 76° East 391 450 20,600 -900 Descending FlightAware ADS-B
07:31PM 40.9945 -74.7309 71° East 390 449 20,500 -720 Descending FlightAware ADS-B
07:32PM 41.0145 -74.6640 68° East 385 443 20,200 -720 Descending FlightAware ADS-B
07:32PM 41.0348 -74.5980 68° East 380 437 19,800 -780 Descending FlightAware ADS-B
07:33PM 41.0564 -74.5253 68° East 376 433 19,400 -660 Descending FlightAware ADS-B
07:33PM 41.0755 -74.4603 69° East 372 428 19,100 -540 Descending FlightAware ADS-B
07:34PM 41.0847 -74.4281 69° East 371 427 19,000 -240 Descending FlightAware ADS-B
07:34PM 41.0894 -74.4030 76° East 371 427 19,000  Level FlightAware ADS-B
07:34PM 41.0903 -74.3949 82° East 371 427 19,000  Level FlightAware ADS-B
07:34PM 41.0907 -74.3790 88° East 372 428 19,000  Level FlightAware ADS-B
07:34PM 41.0894 -74.3577 95° East 372 428 19,000  Level FlightAware ADS-B
07:34PM 41.0882 -74.3488 100° East 372 428 19,000  Level FlightAware ADS-B
07:35PM 41.0782 -74.3146 111° Southeast 367 422 19,000  Level FlightAware ADS-B
07:35PM 41.0683 -74.2947 123° Southeast 359 413 19,000  Level FlightAware ADS-B
07:35PM 41.0545 -74.2762 135° Southeast 350 403 19,000  Level FlightAware ADS-B
07:36PM 41.0147 -74.2374 144° Southeast 344 396 19,000  Level FlightAware ADS-B
07:36PM 40.9749 -74.2003 145° Southeast 345 397 19,000  Level FlightAware ADS-B
07:37PM 40.9335 -74.1620 145° Southeast 345 397 19,000  Level FlightAware ADS-B
07:37PM 40.9163 -74.1479 148° Southeast 338 389 19,000  Level FlightAware ADS-B
07:37PM 40.8860 -74.1301 156° South 331 381 19,000 -240 Level FlightAware ADS-B
07:37PM 40.8710 -74.1218 157° South 331 381 18,900 -960 Descending FlightAware ADS-B
07:38PM 40.8417 -74.1057 157° South 327 376 18,500 -1,440 Descending FlightAware ADS-B
07:38PM 40.8283 -74.0985 158° South 326 375 18,200 -1,800 Descending FlightAware ADS-B
07:38PM 40.7982 -74.0823 158° South 324 373 17,600 -1,620 Descending FlightAware ADS-B
07:38PM 40.7821 -74.0738 158° South 323 372 17,300 -1,920 Descending FlightAware ADS-B
07:39PM 40.7500 -74.0566 158° South 318 366 16,500 -2,220 Descending FlightAware ADS-B
07:39PM 40.7404 -74.0516 158° South 316 364 16,200 -2,880 Descending FlightAware ADS-B
07:39PM 40.6983 -74.0300 159° South 318 366 14,700 -2,760 Descending FlightAware ADS-B
07:40PM 40.6560 -74.0098 160° South 313 360 13,400 -1,860 Descending FlightAware ADS-B
07:40PM 40.6139 -73.9907 161° South 308 354 12,800 -660 Descending FlightAware ADS-B
07:41PM 40.5691 -73.9699 161° South 310 357 12,700 -960 Descending FlightAware ADS-B
07:41PM 40.5280 -73.9510 161° South 301 346 11,800 -1,980 Descending FlightAware
07:42PM 40.5196 -73.9473 161° South 300 345 11,500 -2,820 Descending FlightAware ADS-B
07:42PM 40.4838 -73.9309 161° South 299 344 10,300 -2,580 Descending FlightAware ADS-B
07:42PM 40.4745 -73.9259 158° South 300 345 10,000 -2,220 Descending FlightAware ADS-B
07:42PM 40.4608 -73.9174 155° Southeast 299 344 9,600 -2,460 Descending FlightAware ADS-B
07:43PM 40.4420 -73.9018 148° Southeast 299 344 8,900 -2,520 Descending FlightAware ADS-B
07:43PM 40.4249 -73.8856 144° Southeast 294 338 8,300 -2,220 Descending FlightAware ADS-B
07:43PM 40.4057 -73.8675 144° Southeast 289 333 7,700 -2,220 Descending FlightAware ADS-B
07:43PM 40.3892 -73.8516 144° Southeast 285 328 7,100 -2,520 Descending FlightAware ADS-B
07:44PM 40.3722 -73.8353 144° Southeast 282 325 6,400 -2,520 Descending FlightAware ADS-B
07:44PM 40.3560 -73.8199 144° Southeast 278 320 5,800 -2,340 Descending FlightAware ADS-B
07:44PM 40.3461 -73.8094 141° Southeast 279 321 5,400 -2,340 Descending FlightAware ADS-B
07:44PM 40.3311 -73.7909 137° Southeast 277 319 4,800 -2,280 Descending FlightAware ADS-B
07:45PM 40.3147 -73.7670 132° Southeast 278 320 4,100 -960 Descending FlightAware ADS-B
07:45PM 40.3060 -73.7040 100° East 272 313 3,800 -480 Descending FlightAware
07:46PM 40.3198 -73.6789 54° Northeast 273 314 3,700 -120 Descending FlightAware ADS-B
07:46PM 40.3520 -73.6410 42° Northeast 263 303 3,700  Level FlightAware
07:47PM 40.3830 -73.6090 38° Northeast 262 302 3,700  Level FlightAware
07:47PM 40.4120 -73.5770 40° Northeast 262 302 3,700  Level FlightAware
07:48PM 40.4360 -73.5530 37° Northeast 258 297 3,700  Level FlightAware
07:48PM 40.4680 -73.5290 30° Northeast 259 298 3,700  Level FlightAware
07:49PM 40.5000 -73.5060 29° Northeast 260 299 3,700  Level FlightAware
07:49PM 40.5250 -73.4870 30° Northeast 261 300 3,700  Level FlightAware
07:50PM 40.5580 -73.4640 28° Northeast 261 300 3,700  Level FlightAware
07:50PM 40.5850 -73.4440 29° Northeast 262 302 3,700  Level FlightAware
07:51PM 40.6150 -73.4220 29° Northeast 262 302 3,700  Level FlightAware
07:51PM 40.6450 -73.4070 21° North 244 281 3,700 120 Level FlightAware
07:51PM 40.6600 -73.4090 354° North 226 260 3,800  Climbing FlightAware
07:52PM 40.6890 -73.4170 348° North 213 245 3,700 -120 Descending FlightAware
07:52PM 40.7190 -73.4260 347° North 215 247 3,700  Level FlightAware
07:53PM 40.7430 -73.4330 348° North 217 250 3,700 -120 Level FlightAware
07:53PM 40.7710 -73.4460 341° North 212 244 3,600 -540 Descending FlightAware
07:53PM 40.7780 -73.4640 297° West 208 239 3,300 -1,200 Descending FlightAware
07:54PM 40.7810 -73.4950 277° West 210 242 2,800 -1,140 Descending FlightAware
07:54PM 40.7840 -73.5350 276° West 215 247 2,300 -1,140 Descending FlightAware
07:55PM 40.7910 -73.5660 287° West 214 246 1,800 -660 Descending FlightAware
07:55PM 40.7970 -73.5990 284° West 184 212 1,700  Descending FlightAware
07:55PM 40.7940 -73.6140 255° West 178 205 1,800 120 Climbing FlightAware
07:56PM 40.7770 -73.6320 219° Southwest 176 203 1,800 -120 Level FlightAware
07:56PM 40.7570 -73.6480 211° Southwest 172 198 1,700 -120 Descending FlightAware
07:57PM 40.7380 -73.6610 207° Southwest 174 200 1,700  Level FlightAware
07:57PM 40.7190 -73.6760 211° Southwest 172 198 1,700 -540 Level FlightAware
07:58PM 40.6980 -73.6920 210° Southwest 160 184 1,200 -780 Descending FlightAware
07:58PM 40.6830 -73.7040 211° Southwest 128 147 1,000 -660 Descending FlightAware
07:59PM 40.6690 -73.7160 213° Southwest 122 140 600 -780 Descending FlightAware
07:59PM 40.6560 -73.7260 210° Southwest 117 135 300 -720 Descending FlightAware
08:00PM 40.6420 -73.7380 213° Southwest 129 148 -600 Descending FlightAware